Time;durP1;ratioP1;P1;durP2;ratioP2;P2;SDS_P1;SDS_P2;PMS_P1;PMS_P2;Temp;Humidity;BMP_temperature;BMP_pressure;BME280_temperature;BME280_humidity;BME280_pressure;Samples;Min_cycle;Max_cycle;Signal;HPM_P1;HPM_P2
2023/06/03 00:00:13;;;;;;;10.02;4.30;;;;;;;14.14;65.47;97321.72;6185097;23;20366;-78
2023/06/03 00:02:41;;;;;;;13.27;4.13;;;;;;;14.12;65.67;97328.44;6185611;23;20370;-78
2023/06/03 00:05:08;;;;;;;19.20;4.97;;;;;;;13.97;66.36;97323.19;6185166;23;20377;-77
2023/06/03 00:07:34;;;;;;;14.20;4.25;;;;;;;14.07;66.18;97318.59;6185790;23;20443;-78
2023/06/03 00:10:00;;;;;;;13.73;4.57;;;;;;;13.99;66.64;97316.50;6185866;23;20373;-78
2023/06/03 00:12:26;;;;;;;12.57;4.22;;;;;;;13.95;66.75;97315.47;6185561;23;20392;-78
2023/06/03 00:14:53;;;;;;;13.90;4.55;;;;;;;14.02;66.98;97320.47;6185412;23;20373;-78
2023/06/03 00:17:21;;;;;;;14.48;4.60;;;;;;;13.87;67.61;97321.34;6186135;23;20366;-78
2023/06/03 00:19:49;;;;;;;14.13;4.70;;;;;;;13.85;67.19;97318.97;6185514;23;20373;-78
2023/06/03 00:22:15;;;;;;;13.77;4.40;;;;;;;14.00;67.28;97322.63;6185351;23;20370;-79
2023/06/03 00:24:41;;;;;;;12.57;4.55;;;;;;;13.97;66.89;97326.63;6185170;23;20473;-78
2023/06/03 00:27:07;;;;;;;13.95;4.30;;;;;;;13.82;67.68;97321.38;6185742;23;20393;-78
2023/06/03 00:29:33;;;;;;;13.70;4.70;;;;;;;13.74;67.98;97319.28;6185964;23;20439;-78
2023/06/03 00:31:59;;;;;;;10.57;4.30;;;;;;;13.80;67.79;97323.50;6185859;23;20436;-79
2023/06/03 00:34:26;;;;;;;13.75;4.57;;;;;;;13.73;68.16;97321.16;6184958;23;20369;-78
2023/06/03 00:36:53;;;;;;;17.65;4.30;;;;;;;13.63;68.71;97317.72;6185431;23;20706;-78
2023/06/03 00:39:19;;;;;;;12.20;4.60;;;;;;;13.63;68.34;97321.19;6185435;23;20369;-79
2023/06/03 00:41:45;;;;;;;15.95;5.43;;;;;;;13.42;69.17;97322.31;6185113;23;20365;-78
2023/06/03 00:44:12;;;;;;;11.70;4.60;;;;;;;13.30;69.69;97317.31;6185132;23;20392;-78
2023/06/03 00:46:38;;;;;;;14.48;4.85;;;;;;;13.34;69.64;97322.88;6185160;23;20423;-78
2023/06/03 00:49:05;;;;;;;15.25;4.82;;;;;;;13.36;70.07;97316.22;6185116;23;20905;-78
2023/06/03 00:51:33;;;;;;;14.05;4.70;;;;;;;13.26;70.70;97318.09;6185156;23;20405;-78
2023/06/03 00:54:01;;;;;;;14.45;5.03;;;;;;;13.25;70.94;97317.31;6185361;23;20389;-79
2023/06/03 00:56:29;;;;;;;14.27;4.50;;;;;;;13.34;70.61;97312.25;6184816;23;20361;-79
2023/06/03 00:58:56;;;;;;;13.32;4.43;;;;;;;13.17;70.87;97317.84;6184854;23;20698;-78
2023/06/03 01:01:24;;;;;;;15.43;4.22;;;;;;;13.18;71.75;97314.94;6185065;23;20365;-78
2023/06/03 01:03:50;;;;;;;16.38;4.45;;;;;;;13.13;71.81;97312.28;6185064;23;20702;-78
2023/06/03 01:06:24;;;;;;;19.10;5.13;;;;;;;13.07;72.62;97313.34;6185389;23;20891;-78
2023/06/03 01:08:57;;;;;;;11.82;4.40;;;;;;;12.99;72.23;97313.09;6185553;23;20389;-79
2023/06/03 01:11:49;;;;;;;19.55;5.10;;;;;;;13.02;72.93;97309.88;6185823;23;20400;-78
2023/06/03 01:14:22;;;;;;;13.00;4.53;;;;;;;13.10;72.85;97306.66;6185169;23;20426;-78
2023/06/03 01:16:52;;;;;;;12.02;4.60;;;;;;;12.99;73.09;97308.56;6185813;23;20377;-78
2023/06/03 01:19:36;;;;;;;13.55;4.55;;;;;;;12.86;73.92;97306.44;6185887;23;20369;-78
2023/06/03 01:22:03;;;;;;;15.35;4.47;;;;;;;12.85;73.56;97310.19;6185946;23;20368;-78
2023/06/03 01:24:32;;;;;;;15.25;4.18;;;;;;;12.83;74.28;97303.53;6185663;23;20876;-79
2023/06/03 01:26:58;;;;;;;15.15;4.82;;;;;;;12.94;74.10;97305.91;6185929;23;20381;-78
2023/06/03 01:29:25;;;;;;;15.70;4.73;;;;;;;12.84;74.76;97307.78;6185917;23;20705;-78
2023/06/03 01:31:52;;;;;;;8.23;4.15;;;;;;;12.87;74.59;97294.75;6186136;23;20749;-78
2023/06/03 01:34:18;;;;;;;16.15;5.13;;;;;;;12.78;75.38;97305.13;6185668;23;20370;-78
2023/06/03 01:36:45;;;;;;;13.30;5.10;;;;;;;12.74;75.69;97301.41;6186479;23;20816;-79
2023/06/03 01:39:12;;;;;;;17.38;4.93;;;;;;;12.65;75.82;97308.31;6186018;23;20837;-78
2023/06/03 01:41:42;;;;;;;11.40;4.32;;;;;;;12.72;76.06;97306.19;6185475;23;20376;-79
2023/06/03 01:44:08;;;;;;;14.60;4.65;;;;;;;12.55;76.67;97316.28;6185626;23;20365;-78
2023/06/03 01:46:35;;;;;;;21.42;5.13;;;;;;;12.58;76.17;97310.44;6186551;23;20436;-78
2023/06/03 01:49:02;;;;;;;13.75;4.85;;;;;;;12.59;77.00;97305.91;6159838;23;20420;-79
2023/06/03 01:51:28;;;;;;;14.90;4.83;;;;;;;12.66;76.53;97307.25;6186092;23;20370;-78
2023/06/03 01:53:55;;;;;;;18.13;4.75;;;;;;;12.58;76.63;97301.66;6186296;23;20369;-79
2023/06/03 01:56:21;;;;;;;16.47;4.50;;;;;;;12.59;77.65;97306.72;6185500;23;20401;-78
2023/06/03 01:58:48;;;;;;;15.90;5.00;;;;;;;12.62;77.64;97302.75;6186585;23;20361;-78
2023/06/03 02:01:16;;;;;;;16.53;4.80;;;;;;;12.55;78.08;97299.56;6184916;23;22279;-78
2023/06/03 02:03:42;;;;;;;12.63;4.45;;;;;;;12.40;78.64;97308.31;6186072;23;20372;-78
2023/06/03 02:06:09;;;;;;;14.88;5.10;;;;;;;12.33;79.60;97311.19;6185252;23;20381;-79
2023/06/03 02:08:36;;;;;;;12.38;4.78;;;;;;;12.44;79.02;97309.38;6185547;23;20411;-79
2023/06/03 02:11:02;;;;;;;19.88;5.28;;;;;;;12.34;79.88;97312.00;6185222;23;20369;-78
2023/06/03 02:13:28;;;;;;;11.38;4.43;;;;;;;12.44;79.95;97301.41;6184717;23;20369;-78
2023/06/03 02:15:55;;;;;;;15.00;4.82;;;;;;;12.52;79.48;97302.75;6185130;23;20369;-78
2023/06/03 02:18:23;;;;;;;12.80;4.63;;;;;;;12.52;78.87;97305.38;6185022;23;20709;-78
2023/06/03 02:20:49;;;;;;;17.50;5.03;;;;;;;12.56;78.77;97296.63;6185036;23;20365;-78
2023/06/03 02:23:15;;;;;;;15.00;4.57;;;;;;;12.46;78.91;97303.81;6184677;23;20400;-78
2023/06/03 02:25:41;;;;;;;13.65;4.85;;;;;;;12.41;79.39;97304.56;6184864;23;20426;-78
2023/06/03 02:28:07;;;;;;;16.15;4.70;;;;;;;12.26;80.68;97304.56;6184352;23;20385;-78
2023/06/03 02:30:34;;;;;;;13.80;5.55;;;;;;;12.31;80.61;97304.59;6184623;23;20373;-78
2023/06/03 02:33:01;;;;;;;16.88;4.72;;;;;;;12.21;81.68;97307.22;6184573;23;20376;-78
2023/06/03 02:35:27;;;;;;;15.90;5.13;;;;;;;12.22;81.17;97306.97;6184371;23;20456;-78
2023/06/03 02:37:54;;;;;;;13.00;4.67;;;;;;;12.07;82.67;97306.94;6185062;23;20377;-78
2023/06/03 02:40:20;;;;;;;15.75;4.95;;;;;;;11.98;83.02;97305.84;6185182;23;20370;-78
2023/06/03 02:42:46;;;;;;;13.77;5.18;;;;;;;12.07;83.58;97298.16;6184174;23;20369;-78
2023/06/03 02:45:12;;;;;;;18.63;4.72;;;;;;;12.17;83.36;97303.50;6185647;23;20397;-78
2023/06/03 02:47:38;;;;;;;14.68;5.05;;;;;;;12.15;83.68;97309.06;6186875;23;20377;-78
2023/06/03 02:50:07;;;;;;;11.27;4.70;;;;;;;12.09;84.19;97307.47;6186424;23;20377;-78
2023/06/03 02:52:34;;;;;;;16.27;5.35;;;;;;;12.01;85.14;97310.63;6186270;23;20373;-78
2023/06/03 02:55:00;;;;;;;17.42;5.53;;;;;;;11.96;85.45;97310.59;6186156;23;20369;-78
2023/06/03 02:57:26;;;;;;;15.25;4.90;;;;;;;11.94;85.76;97300.28;6186240;23;20373;-77
2023/06/03 02:59:52;;;;;;;16.65;4.88;;;;;;;11.93;86.75;97309.28;6186479;23;20376;-78
2023/06/03 03:02:19;;;;;;;11.85;4.63;;;;;;;11.87;88.04;97307.69;6186170;23;20508;-78
2023/06/03 03:04:45;;;;;;;16.83;5.78;;;;;;;11.80;88.14;97315.06;6185651;23;20369;-78
2023/06/03 03:07:13;;;;;;;12.48;5.03;;;;;;;11.93;87.89;97314.59;6186018;23;20854;-78
2023/06/03 03:09:40;;;;;;;16.25;4.80;;;;;;;11.75;88.51;97312.41;6186428;23;20452;-78
2023/06/03 03:12:07;;;;;;;13.60;4.80;;;;;;;11.82;88.45;97315.59;6186259;23;20373;-78
2023/06/03 03:14:34;;;;;;;14.98;4.70;;;;;;;11.85;89.41;97309.78;6186459;23;20395;-78
2023/06/03 03:17:00;;;;;;;14.45;4.90;;;;;;;11.73;90.30;97314.47;6186092;23;20372;-78
2023/06/03 03:19:26;;;;;;;14.02;4.75;;;;;;;11.71;91.02;97308.66;6185796;23;20500;-78
2023/06/03 03:21:52;;;;;;;15.45;4.80;;;;;;;11.73;90.68;97321.66;6186869;23;20385;-78
2023/06/03 03:24:22;;;;;;;16.00;4.70;;;;;;;11.64;92.24;97318.69;6186209;23;20369;-78
2023/06/03 03:26:48;;;;;;;14.63;4.73;;;;;;;11.72;91.46;97317.41;6160441;23;20390;-78
2023/06/03 03:29:14;;;;;;;17.33;4.90;;;;;;;11.67;92.41;97317.38;6186741;23;20372;-78
2023/06/03 03:31:41;;;;;;;15.60;5.03;;;;;;;11.53;94.46;97325.81;6186465;23;20369;-78
2023/06/03 03:34:07;;;;;;;14.95;4.97;;;;;;;11.57;93.63;97323.44;6186214;23;20376;-78
2023/06/03 03:36:36;;;;;;;14.02;5.13;;;;;;;11.59;94.77;97321.31;6186569;23;20365;-78
2023/06/03 03:39:03;;;;;;;21.60;6.00;;;;;;;11.63;94.21;97322.41;6186588;23;20772;-79
2023/06/03 03:41:32;;;;;;;15.65;5.57;;;;;;;11.54;95.09;97324.75;6185916;23;20851;-78
2023/06/03 03:43:59;;;;;;;17.52;5.18;;;;;;;11.54;94.64;97324.75;6185885;23;20361;-78
2023/06/03 03:46:25;;;;;;;16.15;5.03;;;;;;;11.56;96.42;97319.19;6186167;23;20432;-78
2023/06/03 03:48:51;;;;;;;14.07;5.15;;;;;;;11.63;95.29;97320.56;6186152;23;20370;-78
2023/06/03 03:51:17;;;;;;;14.80;5.10;;;;;;;11.64;95.86;97318.69;6160465;23;20373;-78
2023/06/03 03:53:45;;;;;;;15.18;4.68;;;;;;;11.56;97.62;97316.53;6186185;23;20397;-78
2023/06/03 03:56:17;;;;;;;16.98;5.25;;;;;;;11.48;98.51;97325.00;6186288;23;20383;-78
2023/06/03 03:58:46;;;;;;;17.20;4.93;;;;;;;11.57;98.95;97320.78;6186261;23;20365;-78
2023/06/03 04:01:24;;;;;;;15.32;5.25;;;;;;;11.65;99.04;97320.31;6186019;23;20370;-78
2023/06/03 04:03:51;;;;;;;16.98;5.53;;;;;;;11.65;100.00;97325.59;6186485;23;20742;-78
2023/06/03 04:06:29;;;;;;;15.60;5.80;;;;;;;11.62;100.00;97326.91;6186062;23;20389;-79
2023/06/03 04:08:56;;;;;;;15.38;5.22;;;;;;;11.73;100.00;97324.31;6159870;23;20825;-78
2023/06/03 04:11:26;;;;;;;14.52;5.22;;;;;;;11.73;100.00;97335.69;6186519;23;20829;-78
2023/06/03 04:13:54;;;;;;;13.68;4.70;;;;;;;11.81;100.00;97334.41;6186785;23;20805;-79
2023/06/03 04:16:48;;;;;;;10.52;5.07;;;;;;;11.86;100.00;97340.56;6186624;23;20366;-78
2023/06/03 04:19:17;;;;;;;15.60;5.25;;;;;;;11.86;100.00;97337.91;6186639;23;20365;-78
2023/06/03 04:21:43;;;;;;;14.23;5.03;;;;;;;11.90;100.00;97338.97;6186720;23;20372;-78
2023/06/03 04:24:10;;;;;;;12.30;4.78;;;;;;;12.00;100.00;97344.31;6186717;23;20362;-79
2023/06/03 04:26:36;;;;;;;15.07;5.27;;;;;;;12.05;100.00;97340.88;6186089;23;20381;-78
2023/06/03 04:29:04;;;;;;;12.90;5.15;;;;;;;12.12;100.00;97343.28;6186464;23;20374;-78
2023/06/03 04:31:30;;;;;;;14.95;5.40;;;;;;;12.12;100.00;97343.28;6186458;23;20369;-78
2023/06/03 04:33:57;;;;;;;19.77;5.30;;;;;;;12.19;100.00;97341.97;6185980;23;20365;-78
2023/06/03 04:36:23;;;;;;;12.15;4.80;;;;;;;12.30;100.00;97353.41;6185819;23;20373;-78
2023/06/03 04:38:51;;;;;;;16.80;5.22;;;;;;;12.38;100.00;97344.94;6185852;23;20372;-79
2023/06/03 04:41:17;;;;;;;12.90;5.20;;;;;;;12.48;100.00;97346.81;6186010;23;20369;-78
2023/06/03 04:43:45;;;;;;;14.93;5.28;;;;;;;12.54;100.00;97349.22;6185757;23;20702;-78
2023/06/03 04:46:14;;;;;;;12.90;4.80;;;;;;;12.64;100.00;97343.88;6185358;23;20373;-79
2023/06/03 04:48:45;;;;;;;10.55;4.95;;;;;;;12.74;100.00;97341.25;6186028;23;20365;-78
2023/06/03 04:51:11;;;;;;;14.57;5.00;;;;;;;12.82;100.00;97339.13;6186222;23;20372;-78
2023/06/03 04:53:39;;;;;;;16.00;5.50;;;;;;;12.91;100.00;97340.19;6159061;23;20476;-78
2023/06/03 04:56:08;;;;;;;14.27;5.03;;;;;;;13.01;99.83;97333.00;6185355;23;20396;-79
2023/06/03 04:58:35;;;;;;;12.17;5.07;;;;;;;13.10;97.73;97333.25;6185473;23;20420;-78
2023/06/03 05:01:04;;;;;;;15.52;4.95;;;;;;;13.26;100.00;97334.06;6185941;23;20686;-78
2023/06/03 05:03:33;;;;;;;12.80;5.05;;;;;;;13.35;97.05;97333.25;6185221;23;20453;-78
2023/06/03 05:06:01;;;;;;;18.70;5.20;;;;;;;13.44;94.00;97331.63;6185364;23;20394;-78
2023/06/03 05:08:27;;;;;;;19.65;5.13;;;;;;;13.61;93.30;97328.63;6185174;23;20389;-77
2023/06/03 05:10:53;;;;;;;14.53;5.17;;;;;;;13.73;91.87;97328.34;6185819;23;20370;-77
2023/06/03 05:13:20;;;;;;;14.02;5.10;;;;;;;13.80;91.18;97331.50;6185163;23;20361;-78
2023/06/03 05:15:46;;;;;;;14.88;5.10;;;;;;;13.85;89.59;97326.94;6185534;23;20702;-79
2023/06/03 05:18:12;;;;;;;15.10;5.25;;;;;;;13.98;88.45;97333.56;6184995;23;20361;-78
2023/06/03 05:20:40;;;;;;;18.40;5.50;;;;;;;14.06;87.99;97334.84;6185795;23;20370;-78
2023/06/03 05:23:06;;;;;;;17.23;5.18;;;;;;;14.12;87.26;97342.53;6185326;23;20393;-78
2023/06/03 05:25:32;;;;;;;14.55;4.82;;;;;;;14.20;86.24;97339.28;6184634;23;20372;-78
2023/06/03 05:27:58;;;;;;;16.42;4.80;;;;;;;14.25;86.09;97328.59;6184241;23;20381;-78
2023/06/03 05:30:25;;;;;;;14.23;4.82;;;;;;;14.34;85.59;97337.59;6184462;23;20428;-78
2023/06/03 05:32:51;;;;;;;17.65;5.65;;;;;;;14.37;83.49;97338.91;6184659;23;20701;-78
2023/06/03 05:35:17;;;;;;;10.70;4.45;;;;;;;14.42;83.03;97341.59;6185603;23;20377;-78
2023/06/03 05:37:45;;;;;;;15.93;5.55;;;;;;;14.48;83.60;97331.69;6184554;23;20461;-78
2023/06/03 05:40:12;;;;;;;18.65;5.53;;;;;;;14.53;83.47;97335.09;6183984;23;20366;-78
2023/06/03 05:42:39;;;;;;;14.13;4.72;;;;;;;14.56;83.46;97334.56;6183354;23;20372;-78
2023/06/03 05:45:06;;;;;;;17.55;4.82;;;;;;;14.61;83.13;97333.72;6184193;23;20381;-78
2023/06/03 05:47:32;;;;;;;14.30;5.45;;;;;;;14.65;82.39;97332.91;6184263;23;20385;-78
2023/06/03 05:49:59;;;;;;;18.13;5.65;;;;;;;14.70;81.84;97332.84;6157442;23;20381;-78
2023/06/03 05:52:26;;;;;;;13.52;5.43;;;;;;;14.69;80.67;97327.78;6183823;23;20374;-78
2023/06/03 05:54:53;;;;;;;14.63;5.40;;;;;;;14.75;81.23;97333.88;6183599;23;20373;-79
2023/06/03 05:57:19;;;;;;;15.95;5.18;;;;;;;14.77;81.55;97331.72;6185241;23;20366;-78
2023/06/03 05:59:46;;;;;;;12.00;4.55;;;;;;;14.79;79.89;97327.72;6183810;23;20384;-78
2023/06/03 06:02:12;;;;;;;17.40;5.15;;;;;;;14.82;80.80;97329.03;6184888;23;20396;-78
2023/06/03 06:04:38;;;;;;;14.18;5.35;;;;;;;14.81;80.38;97330.88;6185091;23;20428;-79
2023/06/03 06:07:04;;;;;;;15.80;4.78;;;;;;;14.84;80.50;97335.66;6184473;23;20377;-79
2023/06/03 06:09:31;;;;;;;12.57;5.10;;;;;;;14.88;79.46;97334.06;6185044;23;20447;-79
2023/06/03 06:11:58;;;;;;;16.33;5.37;;;;;;;14.95;80.42;97334.53;6185228;23;20429;-78
2023/06/03 06:14:26;;;;;;;12.43;4.78;;;;;;;15.00;80.69;97331.00;6184438;23;20373;-79
2023/06/03 06:16:52;;;;;;;15.27;5.35;;;;;;;15.05;80.35;97331.75;6185292;23;20401;-78
2023/06/03 06:19:18;;;;;;;14.52;5.00;;;;;;;15.14;79.97;97329.28;6183813;23;20378;-78
2023/06/03 06:21:47;;;;;;;17.67;5.50;;;;;;;15.20;80.07;97330.81;6186445;23;20368;-79
2023/06/03 06:24:13;;;;;;;11.93;4.80;;;;;;;15.28;80.04;97332.88;6186702;23;20369;-79
2023/06/03 06:26:40;;;;;;;13.05;4.88;;;;;;;15.36;78.35;97328.78;6186268;23;20413;-78
2023/06/03 06:29:08;;;;;;;12.90;4.60;;;;;;;15.43;78.48;97326.56;6186761;23;20397;-78
2023/06/03 06:31:35;;;;;;;12.63;4.75;;;;;;;15.50;78.33;97332.38;6185946;23;20758;-79
2023/06/03 06:34:01;;;;;;;13.20;4.78;;;;;;;15.53;78.65;97339.00;6159381;23;20444;-78
2023/06/03 06:36:30;;;;;;;14.73;5.05;;;;;;;15.58;78.02;97329.09;6184750;23;20416;-78
2023/06/03 06:38:57;;;;;;;14.50;4.93;;;;;;;15.65;76.94;97331.44;6186259;23;20392;-78
2023/06/03 06:41:25;;;;;;;18.80;5.50;;;;;;;15.65;75.37;97334.09;6186975;23;20365;-79
2023/06/03 06:43:52;;;;;;;14.77;5.40;;;;;;;15.83;72.79;97331.50;6187378;23;20449;-79
2023/06/03 06:46:20;;;;;;;15.87;5.10;;;;;;;15.76;73.66;97331.03;6187019;23;20401;-79
2023/06/03 06:48:46;;;;;;;16.67;4.88;;;;;;;15.80;75.05;97334.72;6160705;23;20381;-78
2023/06/03 06:51:14;;;;;;;20.52;4.90;;;;;;;15.85;73.93;97332.00;6186401;23;20374;-79
2023/06/03 06:53:47;;;;;;;11.50;4.68;;;;;;;15.92;75.12;97341.53;6187937;23;20706;-78
2023/06/03 06:56:15;;;;;;;20.27;5.10;;;;;;;15.98;74.85;97335.84;6187609;23;20357;-78
2023/06/03 06:58:41;;;;;;;13.40;5.10;;;;;;;16.01;74.28;97334.47;6187559;23;20452;-79
2023/06/03 07:01:07;;;;;;;15.27;5.20;;;;;;;15.99;73.72;97332.09;6160524;23;20381;-77
2023/06/03 07:03:36;;;;;;;19.42;5.20;;;;;;;16.03;72.66;97335.78;6185757;23;20373;-79
2023/06/03 07:06:03;;;;;;;14.97;5.20;;;;;;;16.07;71.93;97341.34;6188746;23;20373;-78
2023/06/03 07:08:29;;;;;;;15.25;5.03;;;;;;;16.17;72.60;97333.97;6162760;23;20757;-79
2023/06/03 07:11:00;;;;;;;17.17;4.53;;;;;;;16.21;73.02;97332.34;6161422;23;20381;-78
2023/06/03 07:13:27;;;;;;;11.90;4.20;;;;;;;16.30;73.72;97340.50;6184893;23;20389;-78
2023/06/03 07:15:53;;;;;;;12.50;4.43;;;;;;;16.35;72.93;97332.41;6184983;23;20380;-78
2023/06/03 07:18:21;;;;;;;16.83;4.65;;;;;;;16.43;72.21;97339.75;6185484;23;20373;-78
2023/06/03 07:20:50;;;;;;;13.02;4.78;;;;;;;16.51;71.48;97336.44;6187725;23;20370;-78
2023/06/03 07:23:22;;;;;;;15.00;4.87;;;;;;;16.59;70.07;97332.31;6188039;23;20825;-78
2023/06/03 07:25:50;;;;;;;20.67;4.90;;;;;;;16.63;70.35;97331.47;6188424;23;20369;-78
2023/06/03 07:28:20;;;;;;;18.00;4.88;;;;;;;16.75;71.46;97344.41;6186336;23;20435;-79
2023/06/03 07:30:47;;;;;;;15.93;4.88;;;;;;;16.82;70.37;97339.47;6188325;23;20814;-78
2023/06/03 07:33:25;;;;;;;13.63;4.95;;;;;;;16.87;70.24;97339.38;6188352;23;20514;-78
2023/06/03 07:35:54;;;;;;;18.60;4.80;;;;;;;16.90;69.29;97330.78;6189799;23;20416;-79
2023/06/03 07:38:46;;;;;;;14.40;4.97;;;;;;;16.99;69.88;97329.00;6190083;23;20361;-77
2023/06/03 07:41:17;;;;;;;12.27;4.90;;;;;;;17.04;69.63;97330.81;6187323;23;20369;-78
2023/06/03 07:43:44;;;;;;;13.85;4.78;;;;;;;17.06;69.14;97341.22;6186485;23;20803;-77
2023/06/03 07:46:10;;;;;;;14.13;4.90;;;;;;;17.10;68.70;97337.66;6186428;23;20374;-78
2023/06/03 07:48:37;;;;;;;12.93;4.85;;;;;;;17.15;68.70;97340.25;6186324;23;20369;-78
2023/06/03 07:51:06;;;;;;;17.45;5.32;;;;;;;17.22;67.62;97339.84;6159416;23;20394;-77
2023/06/03 07:53:36;;;;;;;17.83;5.47;;;;;;;17.28;66.36;97342.19;6160967;23;20368;-78
2023/06/03 07:56:07;;;;;;;18.65;5.70;;;;;;;17.39;65.12;97340.88;6187578;23;20702;-79
2023/06/03 07:58:36;;;;;;;14.23;4.93;;;;;;;17.39;66.93;97335.53;6186101;23;20385;-79
2023/06/03 08:01:04;;;;;;;15.85;5.20;;;;;;;17.46;67.48;97342.38;6187430;23;20452;-78
2023/06/03 08:03:32;;;;;;;12.77;4.37;;;;;;;17.57;67.87;97344.59;6187286;23;20372;-78
2023/06/03 08:05:58;;;;;;;18.50;5.20;;;;;;;17.69;68.02;97349.47;6187794;23;20452;-78
2023/06/03 08:08:32;;;;;;;12.57;4.90;;;;;;;17.85;67.26;97344.59;6188161;23;20410;-78
2023/06/03 08:11:00;;;;;;;15.40;4.93;;;;;;;17.97;67.85;97348.34;6186249;23;20375;-77
2023/06/03 08:13:26;;;;;;;16.45;5.10;;;;;;;18.09;63.64;97345.97;6186862;23;20863;-77
2023/06/03 08:15:52;;;;;;;14.75;5.35;;;;;;;18.13;65.20;97338.13;6186402;23;20373;-77
2023/06/03 08:18:41;;;;;;;20.95;4.82;;;;;;;18.27;65.89;97341.56;6186256;23;20373;-78
2023/06/03 08:21:07;;;;;;;16.73;4.82;;;;;;;18.41;65.38;97352.28;6185783;23;20373;-78
2023/06/03 08:23:36;;;;;;;17.00;5.10;;;;;;;18.57;65.54;97352.75;6158792;23;20380;-78
2023/06/03 08:26:03;;;;;;;20.77;5.65;;;;;;;18.65;63.38;97352.00;6184621;23;20369;-78
2023/06/03 08:28:29;;;;;;;18.63;4.93;;;;;;;18.80;64.24;97349.75;6186272;23;20388;-77
2023/06/03 08:30:56;;;;;;;14.15;5.10;;;;;;;18.95;62.93;97351.28;6186840;23;20370;-77
2023/06/03 08:33:22;;;;;;;19.38;5.18;;;;;;;19.11;63.63;97354.38;6185595;23;20384;-78
2023/06/03 08:35:49;;;;;;;13.13;4.85;;;;;;;19.24;64.71;97359.69;6159217;23;20387;-78
2023/06/03 08:38:16;;;;;;;10.60;5.03;;;;;;;19.41;64.32;97371.59;6185344;23;20448;-78
2023/06/03 08:40:48;;;;;;;13.48;5.15;;;;;;;19.47;61.75;97365.81;6185233;23;20373;-79
2023/06/03 08:43:15;;;;;;;13.15;5.28;;;;;;;19.66;59.34;97363.72;6184698;23;20371;-77
2023/06/03 08:45:53;;;;;;;15.40;5.20;;;;;;;19.65;58.77;97364.03;6184692;23;20389;-78
2023/06/03 08:48:30;;;;;;;16.23;5.00;;;;;;;19.67;60.50;97356.44;6184226;23;20381;-77
2023/06/03 08:51:04;;;;;;;15.70;5.10;;;;;;;19.80;62.10;97357.44;6183456;23;20361;-78
2023/06/03 08:53:40;;;;;;;8.50;3.53;;;;;;;19.63;63.86;97350.09;6182186;23;20452;-72
2023/06/03 08:56:10;;;;;;;8.35;3.58;;;;;;;19.61;64.72;97350.44;6182011;23;20369;-72
2023/06/03 08:58:49;;;;;;;5.53;3.00;;;;;;;19.62;65.00;97357.38;6182721;23;20368;-73
2023/06/03 09:01:17;;;;;;;11.07;4.07;;;;;;;19.67;63.64;97353.75;6182439;23;20369;-72
2023/06/03 09:03:45;;;;;;;12.05;4.32;;;;;;;19.70;63.64;97347.75;6182684;23;20357;-73
2023/06/03 09:06:12;;;;;;;7.05;3.30;;;;;;;19.83;63.66;97351.44;6182347;23;20423;-72
2023/06/03 09:08:45;;;;;;;9.35;3.25;;;;;;;19.90;63.84;97351.78;6182246;23;20381;-73
2023/06/03 09:11:14;;;;;;;7.18;3.75;;;;;;;20.00;64.20;97354.97;6155928;23;20422;-73
2023/06/03 09:13:42;;;;;;;10.38;4.50;;;;;;;20.29;59.89;97357.09;6182075;23;20365;-72
2023/06/03 09:16:09;;;;;;;8.90;4.03;;;;;;;20.36;58.24;97345.91;6182401;23;20361;-73
2023/06/03 09:18:36;;;;;;;11.63;3.87;;;;;;;20.29;59.53;97353.63;6182758;23;20361;-71
2023/06/03 09:21:03;;;;;;;11.45;4.05;;;;;;;20.35;60.95;97355.88;6182260;23;20400;-70
2023/06/03 09:23:31;;;;;;;12.57;4.55;;;;;;;20.46;62.04;97357.13;6182749;23;20776;-69
2023/06/03 09:25:58;;;;;;;12.50;4.18;;;;;;;20.61;62.45;97361.25;6182787;23;20753;-70
2023/06/03 09:28:25;;;;;;;11.63;3.83;;;;;;;20.76;62.13;97358.09;6182735;23;20413;-70
2023/06/03 09:30:52;;;;;;;12.37;3.70;;;;;;;20.83;63.12;97357.59;6182956;23;20396;-69
2023/06/03 09:33:18;;;;;;;8.63;4.05;;;;;;;20.93;62.95;97354.59;6182354;23;20369;-70
2023/06/03 09:36:05;;;;;;;10.40;4.78;;;;;;;21.05;61.26;97351.28;6182362;23;20846;-71
2023/06/03 09:38:49;;;;;;;9.15;3.78;;;;;;;21.14;61.58;97354.72;6182722;23;20381;-71
2023/06/03 09:41:17;;;;;;;5.85;2.95;;;;;;;21.17;61.67;97349.53;6182112;23;20366;-70
2023/06/03 09:43:55;;;;;;;6.20;3.47;;;;;;;21.22;62.14;97346.66;6181399;23;20750;-71
2023/06/03 09:46:21;;;;;;;11.10;4.47;;;;;;;21.29;62.62;97350.75;6181265;23;20381;-70
2023/06/03 09:48:47;;;;;;;12.70;4.50;;;;;;;21.41;62.08;97349.00;6182270;23;20749;-69
2023/06/03 09:51:14;;;;;;;7.80;3.58;;;;;;;21.56;62.28;97342.28;6182378;23;20386;-70
2023/06/03 09:53:40;;;;;;;10.52;4.55;;;;;;;21.76;61.41;97340.78;6182652;23;20369;-69
2023/06/03 09:56:22;;;;;;;8.35;4.10;;;;;;;21.77;58.93;97343.16;6184274;23;20373;-69
2023/06/03 09:58:50;;;;;;;11.37;4.40;;;;;;;21.78;58.27;97338.56;6184442;23;20532;-69
2023/06/03 10:01:30;;;;;;;10.35;4.35;;;;;;;21.83;59.45;97335.66;6184018;23;20376;-71
2023/06/03 10:03:59;;;;;;;5.00;3.17;;;;;;;21.93;59.80;97338.78;6183879;23;20384;-70
2023/06/03 10:06:26;;;;;;;13.07;4.70;;;;;;;22.03;58.20;97339.56;6182938;23;20365;-69
2023/06/03 10:08:52;;;;;;;8.63;4.10;;;;;;;22.04;58.80;97336.53;6183184;23;20402;-70
2023/06/03 10:11:18;;;;;;;10.23;4.32;;;;;;;22.11;58.86;97344.88;6184080;23;20373;-70
2023/06/03 10:13:45;;;;;;;6.90;3.70;;;;;;;22.25;58.77;97334.66;6184121;23;20829;-70
2023/06/03 10:16:12;;;;;;;8.60;4.20;;;;;;;22.33;58.72;97323.00;6183892;23;20419;-70
2023/06/03 10:18:41;;;;;;;9.87;4.60;;;;;;;22.47;58.90;97330.88;6184098;23;20365;-69
2023/06/03 10:21:09;;;;;;;9.32;4.00;;;;;;;22.73;59.34;97336.03;6184363;23;20369;-70
2023/06/03 10:23:38;;;;;;;12.63;4.32;;;;;;;22.96;58.60;97333.78;6184135;23;20427;-69
2023/06/03 10:26:06;;;;;;;9.37;3.77;;;;;;;23.36;58.04;97326.72;6184642;23;20432;-69
2023/06/03 10:28:33;;;;;;;9.20;4.32;;;;;;;23.65;55.69;97325.75;6184081;23;20413;-69
2023/06/03 10:31:00;;;;;;;7.70;4.10;;;;;;;24.09;55.31;97320.56;6184018;23;20389;-70
2023/06/03 10:33:29;;;;;;;8.83;3.73;;;;;;;24.77;55.32;97326.06;6184070;23;20429;-70
2023/06/03 10:35:58;;;;;;;8.93;3.70;;;;;;;25.49;53.63;97316.78;6183835;23;20372;-70
2023/06/03 10:38:25;;;;;;;7.57;3.80;;;;;;;26.01;52.36;97321.16;6184038;23;20396;-70
2023/06/03 10:40:53;;;;;;;9.48;4.03;;;;;;;26.44;50.96;97317.47;6184039;23;20369;-70
2023/06/03 10:43:20;;;;;;;7.57;3.72;;;;;;;26.88;48.75;97315.28;6183855;23;20373;-70
2023/06/03 10:45:50;;;;;;;8.25;3.80;;;;;;;27.23;46.16;97315.16;6183795;23;20820;-70
2023/06/03 10:48:20;;;;;;;11.05;4.05;;;;;;;27.42;46.96;97314.34;6184290;23;20448;-70
2023/06/03 10:51:00;;;;;;;9.38;4.15;;;;;;;27.51;44.99;97315.69;6157462;23;20384;-70
2023/06/03 10:53:41;;;;;;;7.35;3.50;;;;;;;27.43;46.13;97308.56;6183724;23;20505;-70
2023/06/03 10:56:20;;;;;;;14.68;4.10;;;;;;;27.26;46.53;97312.53;6183540;23;20829;-70
2023/06/03 10:58:57;;;;;;;8.13;4.00;;;;;;;27.12;46.80;97308.78;6183809;23;20416;-71
2023/06/03 11:01:54;;;;;;;10.27;3.70;;;;;;;26.86;47.67;97302.03;6183745;23;20365;-70
2023/06/03 11:04:20;;;;;;;6.10;3.50;;;;;;;26.67;48.22;97306.72;6183373;23;20873;-70
2023/06/03 11:06:47;;;;;;;8.67;3.80;;;;;;;26.50;48.00;97302.47;6182994;23;20368;-70
2023/06/03 11:09:16;;;;;;;7.28;3.47;;;;;;;26.45;48.34;97306.28;6183459;23;20448;-70
2023/06/03 11:12:03;;;;;;;5.90;3.35;;;;;;;26.46;48.57;97307.81;6182847;23;20369;-71
2023/06/03 11:14:54;;;;;;;12.13;4.90;;;;;;;26.09;45.00;97299.25;6183438;23;20686;-70
2023/06/03 11:17:25;;;;;;;6.72;3.22;;;;;;;26.06;46.23;97299.97;6183651;23;20362;-70
2023/06/03 11:19:55;;;;;;;6.75;3.65;;;;;;;25.92;47.28;97307.78;6182794;23;20369;-70
2023/06/03 11:22:43;;;;;;;6.75;4.10;;;;;;;26.06;46.91;97294.53;6183122;23;20700;-70
2023/06/03 11:25:32;;;;;;;9.03;4.37;;;;;;;25.98;49.06;97292.81;6183099;23;20381;-70
2023/06/03 11:28:34;;;;;;;6.55;3.78;;;;;;;26.16;48.79;97307.53;6183447;23;20392;-70
2023/06/03 11:31:06;;;;;;;9.75;4.25;;;;;;;26.23;46.59;97301.50;6092260;23;20815;-70
2023/06/03 11:33:32;;;;;;;11.93;4.40;;;;;;;26.34;46.92;97294.41;6168883;23;20468;-70